Time;durP1;ratioP1;P1;durP2;ratioP2;P2;SDS_P1;SDS_P2;PMS_P1;PMS_P2;Temp;Humidity;BMP_temperature;BMP_pressure;BME280_temperature;BME280_humidity;BME280_pressure;Samples;Min_cycle;Max_cycle;Signal;HPM_P1;HPM_P2
2023/12/18 00:00:35;;;;;;;;;;;8.00;99.90;;;;;;5026549;28;20050;-65
2023/12/18 00:03:00;;;;;;;;;;;7.90;99.90;;;;;;4995085;28;20396;-66
2023/12/18 00:05:26;;;;;;;;;;;7.90;99.90;;;;;;5023329;28;19928;-66
2023/12/18 00:07:52;;;;;;;;;;;7.90;99.90;;;;;;5003308;28;21107;-66
2023/12/18 00:10:18;;;;;;;;;;;7.90;99.90;;;;;;5029692;28;20019;-65
2023/12/18 00:12:44;;;;;;;;;;;7.90;99.90;;;;;;5014276;28;19928;-65
2023/12/18 00:15:10;;;;;;;;;;;7.90;99.90;;;;;;5031292;28;19928;-65
2023/12/18 00:17:36;;;;;;;;;;;7.90;99.90;;;;;;4994100;28;19935;-65
2023/12/18 00:20:03;;;;;;;;;;;7.90;99.90;;;;;;5029295;28;19979;-65
2023/12/18 00:22:29;;;;;;;;;;;7.90;99.90;;;;;;4983387;28;19928;-65
2023/12/18 00:24:55;;;;;;;;;;;7.80;99.90;;;;;;5029814;28;19923;-65
2023/12/18 00:27:20;;;;;;;;;;;7.90;99.90;;;;;;4996333;28;20398;-66
2023/12/18 00:29:46;;;;;;;;;;;7.90;99.90;;;;;;5027732;28;20015;-66
2023/12/18 00:32:12;;;;;;;;;;;7.90;99.90;;;;;;5020850;27;20431;-65
2023/12/18 00:34:41;;;;;;;;;;;7.80;99.90;;;;;;5037658;27;19947;-66
2023/12/18 00:37:07;;;;;;;;;;;7.80;99.90;;;;;;5006464;28;19924;-65
2023/12/18 00:39:33;;;;;;;;;;;7.90;99.90;;;;;;5035663;28;19951;-65
2023/12/18 00:41:59;;;;;;;;;;;7.90;99.90;;;;;;4993634;28;20421;-65
2023/12/18 00:44:25;;;;;;;;;;;7.90;99.90;;;;;;5027238;28;20134;-66
2023/12/18 00:46:51;;;;;;;;;;;7.90;99.90;;;;;;4995506;28;20020;-65
2023/12/18 00:49:17;;;;;;;;;;;7.90;99.90;;;;;;5019882;28;19924;-65
2023/12/18 00:51:43;;;;;;;;;;;7.90;99.90;;;;;;4999096;28;19969;-65
2023/12/18 00:54:09;;;;;;;;;;;8.00;99.90;;;;;;5034357;28;19931;-66
2023/12/18 00:56:36;;;;;;;;;;;8.00;99.90;;;;;;5006022;28;20307;-66
2023/12/18 00:59:02;;;;;;;;;;;7.90;99.90;;;;;;5037115;28;19924;-65
2023/12/18 01:01:28;;;;;;;;;;;8.00;99.90;;;;;;5006047;28;19924;-65
2023/12/18 01:03:54;;;;;;;;;;;8.00;99.90;;;;;;5037565;28;19924;-64
2023/12/18 01:06:20;;;;;;;;;;;8.00;99.90;;;;;;4997020;28;19928;-65
2023/12/18 01:08:46;;;;;;;;;;;8.00;99.90;;;;;;5024363;28;20814;-65
2023/12/18 01:11:12;;;;;;;;;;;8.00;99.90;;;;;;4984596;28;20192;-65
2023/12/18 01:13:38;;;;;;;;;;;8.00;99.90;;;;;;5034739;28;19925;-66
2023/12/18 01:16:04;;;;;;;;;;;8.00;99.90;;;;;;5001278;28;19929;-65
2023/12/18 01:18:30;;;;;;;;;;;8.00;99.90;;;;;;5042680;28;21248;-65
2023/12/18 01:20:56;;;;;;;;;;;8.00;99.90;;;;;;4997364;28;20949;-65
2023/12/18 01:23:21;;;;;;;;;;;8.00;99.90;;;;;;5023920;28;19930;-66
2023/12/18 01:25:48;;;;;;;;;;;8.00;99.90;;;;;;5011916;27;22301;-66
2023/12/18 01:28:14;;;;;;;;;;;8.00;99.90;;;;;;5041233;28;19929;-66
2023/12/18 01:30:39;;;;;;;;;;;8.00;99.90;;;;;;5026727;28;19932;-65
2023/12/18 01:33:05;;;;;;;;;;;8.00;99.90;;;;;;5010582;28;19966;-66
2023/12/18 01:35:33;;;;;;;;;;;8.00;99.90;;;;;;5028663;28;19924;-65
2023/12/18 01:37:59;;;;;;;;;;;8.00;99.90;;;;;;5009361;28;19924;-66
2023/12/18 01:40:25;;;;;;;;;;;8.00;99.90;;;;;;5011944;28;19924;-65
2023/12/18 01:42:50;;;;;;;;;;;8.00;99.90;;;;;;4991606;28;19923;-66
2023/12/18 01:45:16;;;;;;;;;;;8.00;99.90;;;;;;5028243;28;19929;-67
2023/12/18 01:47:43;;;;;;;;;;;8.00;99.90;;;;;;5009612;28;19959;-67
2023/12/18 01:50:09;;;;;;;;;;;8.10;99.90;;;;;;5025734;28;19924;-66
2023/12/18 01:52:35;;;;;;;;;;;8.00;99.90;;;;;;5007125;28;19934;-66
2023/12/18 01:55:02;;;;;;;;;;;8.10;99.90;;;;;;5029598;28;19924;-65
2023/12/18 01:57:28;;;;;;;;;;;8.00;99.90;;;;;;5008152;28;19931;-66
2023/12/18 01:59:55;;;;;;;;;;;8.10;99.90;;;;;;5031174;28;19939;-66
2023/12/18 02:02:21;;;;;;;;;;;8.10;99.90;;;;;;5014392;27;19927;-66
2023/12/18 02:04:47;;;;;;;;;;;8.00;99.90;;;;;;5033568;27;19928;-66
2023/12/18 02:07:13;;;;;;;;;;;8.00;99.90;;;;;;5004078;28;20378;-65
2023/12/18 02:09:40;;;;;;;;;;;8.00;99.90;;;;;;5033734;28;20753;-67
2023/12/18 02:12:06;;;;;;;;;;;8.00;99.90;;;;;;4997551;28;19951;-67
2023/12/18 02:14:32;;;;;;;;;;;8.00;99.90;;;;;;5031387;28;20758;-67
2023/12/18 02:16:58;;;;;;;;;;;8.00;99.90;;;;;;5004765;28;19924;-67
2023/12/18 02:19:24;;;;;;;;;;;8.00;99.90;;;;;;5033110;28;19924;-67
2023/12/18 02:21:51;;;;;;;;;;;8.00;99.90;;;;;;4979976;28;19924;-64
2023/12/18 02:24:17;;;;;;;;;;;8.00;99.90;;;;;;5017954;28;20003;-66
2023/12/18 02:26:42;;;;;;;;;;;8.00;99.90;;;;;;5005469;28;19928;-66
2023/12/18 02:29:08;;;;;;;;;;;8.00;99.90;;;;;;5031195;28;19934;-67
2023/12/18 02:31:36;;;;;;;;;;;8.00;99.90;;;;;;5001431;28;19955;-66
2023/12/18 02:34:02;;;;;;;;;;;8.00;99.90;;;;;;5029888;28;19924;-66
2023/12/18 02:36:28;;;;;;;;;;;8.00;99.90;;;;;;4997555;28;19928;-66
2023/12/18 02:38:54;;;;;;;;;;;8.00;99.90;;;;;;5035190;28;20413;-66
2023/12/18 02:41:20;;;;;;;;;;;8.00;99.90;;;;;;5004734;27;19923;-66
2023/12/18 02:43:46;;;;;;;;;;;8.00;99.90;;;;;;5051047;27;19931;-66
2023/12/18 02:46:12;;;;;;;;;;;8.00;99.90;;;;;;4996789;28;19933;-65
2023/12/18 02:48:38;;;;;;;;;;;8.00;99.90;;;;;;5021991;28;19931;-66
2023/12/18 02:51:04;;;;;;;;;;;8.00;99.90;;;;;;4998810;28;21212;-66
2023/12/18 02:53:30;;;;;;;;;;;8.00;99.90;;;;;;5036860;28;20322;-66
2023/12/18 02:55:56;;;;;;;;;;;8.00;99.90;;;;;;4996824;28;20808;-67
2023/12/18 02:58:22;;;;;;;;;;;8.00;99.90;;;;;;5034791;28;20024;-66
2023/12/18 03:00:48;;;;;;;;;;;8.00;99.90;;;;;;5008255;28;19924;-65
2023/12/18 03:03:14;;;;;;;;;;;8.00;99.90;;;;;;5020496;28;19935;-65
2023/12/18 03:05:40;;;;;;;;;;;8.00;99.90;;;;;;5027293;28;19935;-66
2023/12/18 03:08:06;;;;;;;;;;;8.00;99.90;;;;;;5014222;28;19924;-66
2023/12/18 03:10:32;;;;;;;;;;;8.00;99.90;;;;;;5027161;28;19928;-66
2023/12/18 03:12:58;;;;;;;;;;;8.00;99.90;;;;;;5027138;28;20535;-67
2023/12/18 03:15:24;;;;;;;;;;;8.00;99.90;;;;;;5027174;28;20026;-66
2023/12/18 03:17:50;;;;;;;;;;;8.00;99.90;;;;;;5008271;28;19924;-66
2023/12/18 03:20:16;;;;;;;;;;;8.00;99.90;;;;;;5025670;28;20630;-66
2023/12/18 03:22:42;;;;;;;;;;;8.00;99.90;;;;;;5001899;28;19985;-66
2023/12/18 03:25:08;;;;;;;;;;;8.00;99.90;;;;;;5030451;28;20026;-66
2023/12/18 03:27:34;;;;;;;;;;;8.00;99.90;;;;;;4990476;28;19951;-66
2023/12/18 03:29:59;;;;;;;;;;;8.00;99.90;;;;;;5025378;28;21209;-66
2023/12/18 03:32:25;;;;;;;;;;;8.00;99.90;;;;;;4993382;28;19934;-67
2023/12/18 03:34:51;;;;;;;;;;;8.10;99.90;;;;;;5026700;28;19931;-66
2023/12/18 03:37:17;;;;;;;;;;;8.00;99.90;;;;;;4979985;28;19932;-65
2023/12/18 03:39:43;;;;;;;;;;;8.00;99.90;;;;;;5012016;28;19931;-66
2023/12/18 03:42:09;;;;;;;;;;;8.00;99.90;;;;;;5014208;28;20394;-66
2023/12/18 03:44:35;;;;;;;;;;;8.10;99.90;;;;;;5036595;28;20938;-65
2023/12/18 03:47:02;;;;;;;;;;;8.10;99.90;;;;;;4998447;28;20485;-66
2023/12/18 03:49:28;;;;;;;;;;;8.10;99.90;;;;;;5030117;28;19924;-66
2023/12/18 03:51:54;;;;;;;;;;;8.10;99.90;;;;;;5005096;28;19939;-66
2023/12/18 03:54:20;;;;;;;;;;;8.10;99.90;;;;;;5027466;28;19951;-66
2023/12/18 03:56:46;;;;;;;;;;;8.10;99.90;;;;;;5004538;28;19931;-66
2023/12/18 03:59:12;;;;;;;;;;;8.10;99.90;;;;;;5037261;28;20078;-66
2023/12/18 04:01:38;;;;;;;;;;;8.10;99.90;;;;;;4997559;28;19928;-67
2023/12/18 04:04:04;;;;;;;;;;;8.20;99.90;;;;;;5028062;28;19924;-67
2023/12/18 04:06:30;;;;;;;;;;;8.20;99.90;;;;;;4999442;28;19932;-65
2023/12/18 04:08:56;;;;;;;;;;;8.20;99.90;;;;;;5041050;28;19943;-65
2023/12/18 04:11:21;;;;;;;;;;;8.20;99.90;;;;;;5049115;28;20343;-65
2023/12/18 04:13:48;;;;;;;;;;;8.20;99.90;;;;;;5073949;28;19920;-65
2023/12/18 04:16:14;;;;;;;;;;;8.20;99.90;;;;;;5046779;28;20079;-66
2023/12/18 04:18:40;;;;;;;;;;;8.20;99.90;;;;;;5077021;28;20501;-66
2023/12/18 04:21:06;;;;;;;;;;;8.20;99.90;;;;;;5046581;28;20942;-66
2023/12/18 04:23:31;;;;;;;;;;;8.20;99.90;;;;;;5074263;28;19920;-66
2023/12/18 04:25:57;;;;;;;;;;;8.20;99.90;;;;;;5051300;27;20671;-66
2023/12/18 04:28:23;;;;;;;;;;;8.20;99.90;;;;;;5110050;27;19920;-67
2023/12/18 04:30:49;;;;;;;;;;;8.20;99.90;;;;;;5045927;28;20406;-66
2023/12/18 04:33:15;;;;;;;;;;;8.20;99.90;;;;;;5095030;28;19928;-66
2023/12/18 04:35:42;;;;;;;;;;;8.20;99.90;;;;;;5099849;28;19939;-66
2023/12/18 04:38:07;;;;;;;;;;;8.20;99.90;;;;;;5066113;28;19920;-66
2023/12/18 04:40:33;;;;;;;;;;;8.20;99.90;;;;;;5079051;28;19925;-66
2023/12/18 04:42:59;;;;;;;;;;;8.20;99.90;;;;;;5069935;27;19927;-65
2023/12/18 04:45:25;;;;;;;;;;;8.20;99.90;;;;;;5099317;28;20507;-66
2023/12/18 04:47:51;;;;;;;;;;;8.20;99.90;;;;;;5084668;27;19926;-66
2023/12/18 04:50:17;;;;;;;;;;;8.20;99.90;;;;;;5030013;28;19935;-65
2023/12/18 04:52:43;;;;;;;;;;;8.20;99.90;;;;;;5008435;28;19985;-66
2023/12/18 04:55:09;;;;;;;;;;;8.20;99.90;;;;;;5029457;28;19924;-65
2023/12/18 04:57:35;;;;;;;;;;;8.20;99.90;;;;;;5014972;28;19935;-65
2023/12/18 05:00:02;;;;;;;;;;;8.20;99.90;;;;;;5027061;28;19935;-65
2023/12/18 05:02:28;;;;;;;;;;;8.20;99.90;;;;;;4971250;28;19924;-65
2023/12/18 05:04:54;;;;;;;;;;;8.20;99.90;;;;;;5025628;28;20428;-64
2023/12/18 05:07:20;;;;;;;;;;;8.20;99.90;;;;;;5014330;28;20023;-65
2023/12/18 05:09:46;;;;;;;;;;;8.20;99.90;;;;;;5034693;28;19977;-65
2023/12/18 05:12:12;;;;;;;;;;;8.20;99.90;;;;;;4997938;28;20855;-65
2023/12/18 05:14:38;;;;;;;;;;;8.20;99.90;;;;;;5034811;28;20426;-65
2023/12/18 05:17:04;;;;;;;;;;;8.20;99.90;;;;;;5005367;28;20040;-65
2023/12/18 05:19:30;;;;;;;;;;;8.20;99.90;;;;;;5035023;28;19928;-65
2023/12/18 05:21:56;;;;;;;;;;;8.20;99.90;;;;;;5017677;27;19935;-65
2023/12/18 05:24:22;;;;;;;;;;;8.20;99.90;;;;;;5042452;27;19924;-65
2023/12/18 05:26:47;;;;;;;;;;;8.20;99.90;;;;;;5005330;28;19924;-65
2023/12/18 05:29:14;;;;;;;;;;;8.20;99.90;;;;;;5032359;28;19946;-65
2023/12/18 05:31:40;;;;;;;;;;;8.20;99.90;;;;;;5008462;28;19928;-66
2023/12/18 05:34:06;;;;;;;;;;;8.20;99.90;;;;;;5035720;28;19932;-66
2023/12/18 05:36:32;;;;;;;;;;;8.20;99.90;;;;;;4976076;28;19935;-64
2023/12/18 05:38:58;;;;;;;;;;;8.10;99.90;;;;;;5035600;28;20472;-65
2023/12/18 05:41:24;;;;;;;;;;;8.20;99.90;;;;;;4987759;28;19928;-65
2023/12/18 05:43:50;;;;;;;;;;;8.20;99.90;;;;;;5013673;28;20453;-64
2023/12/18 05:46:16;;;;;;;;;;;8.20;99.90;;;;;;5001597;28;19928;-64
2023/12/18 05:48:41;;;;;;;;;;;8.20;99.90;;;;;;5039801;28;19932;-65
2023/12/18 05:51:17;;;;;;;;;;;8.20;99.90;;;;;;4998974;28;20513;-64
2023/12/18 05:53:43;;;;;;;;;;;8.20;99.90;;;;;;5026788;28;20995;-64
2023/12/18 05:56:09;;;;;;;;;;;8.20;99.90;;;;;;5005134;27;19925;-64
2023/12/18 05:58:35;;;;;;;;;;;8.20;99.90;;;;;;5055345;27;19928;-64
2023/12/18 06:01:01;;;;;;;;;;;8.30;99.90;;;;;;4999581;28;20096;-64
2023/12/18 06:03:27;;;;;;;;;;;8.20;99.90;;;;;;5037801;28;20566;-64
2023/12/18 06:05:53;;;;;;;;;;;8.20;99.90;;;;;;4996845;28;20494;-64
2023/12/18 06:08:19;;;;;;;;;;;8.30;99.90;;;;;;5014588;28;20133;-63
2023/12/18 06:10:45;;;;;;;;;;;8.20;99.90;;;;;;5018518;28;19928;-64
2023/12/18 06:13:11;;;;;;;;;;;8.20;99.90;;;;;;5029365;28;20537;-64
2023/12/18 06:15:36;;;;;;;;;;;8.20;99.90;;;;;;5028144;28;19925;-63
2023/12/18 06:18:02;;;;;;;;;;;8.30;99.90;;;;;;5006104;28;20518;-64
2023/12/18 06:20:28;;;;;;;;;;;8.20;99.90;;;;;;5022599;28;19936;-64
2023/12/18 06:22:54;;;;;;;;;;;8.30;99.90;;;;;;5019657;28;20820;-64
2023/12/18 06:25:20;;;;;;;;;;;8.20;99.90;;;;;;5027032;28;19928;-64
2023/12/18 06:27:46;;;;;;;;;;;8.20;99.90;;;;;;5016798;28;19923;-65
2023/12/18 06:30:13;;;;;;;;;;;8.20;99.90;;;;;;5033173;28;20105;-65
2023/12/18 06:32:39;;;;;;;;;;;8.20;99.90;;;;;;4973754;28;20442;-66
2023/12/18 06:35:05;;;;;;;;;;;8.20;99.90;;;;;;5008791;28;19928;-66
2023/12/18 06:37:31;;;;;;;;;;;8.30;99.90;;;;;;4969907;28;20517;-65
2023/12/18 06:39:57;;;;;;;;;;;8.30;99.90;;;;;;5026758;28;21061;-65
2023/12/18 06:42:23;;;;;;;;;;;8.30;99.90;;;;;;4998419;28;19931;-65
2023/12/18 06:44:49;;;;;;;;;;;8.20;99.90;;;;;;5008878;28;19928;-65
2023/12/18 06:47:15;;;;;;;;;;;8.30;99.90;;;;;;4990560;28;20688;-65
2023/12/18 06:49:41;;;;;;;;;;;8.30;99.90;;;;;;5047342;28;19924;-65
2023/12/18 06:52:07;;;;;;;;;;;8.20;99.90;;;;;;5006690;28;20010;-65
2023/12/18 06:54:34;;;;;;;;;;;8.20;99.90;;;;;;5030841;28;19935;-65
2023/12/18 06:57:00;;;;;;;;;;;8.30;99.90;;;;;;4997124;28;19938;-67
2023/12/18 06:59:26;;;;;;;;;;;8.30;99.90;;;;;;5026480;28;19927;-66
2023/12/18 07:01:52;;;;;;;;;;;8.30;99.90;;;;;;4987594;28;19943;-65
2023/12/18 07:04:18;;;;;;;;;;;8.30;99.90;;;;;;5023400;28;20934;-66
2023/12/18 07:06:44;;;;;;;;;;;8.30;99.90;;;;;;4997191;28;19928;-65
2023/12/18 07:09:10;;;;;;;;;;;8.30;99.90;;;;;;5023857;28;19931;-66
2023/12/18 07:11:36;;;;;;;;;;;8.30;99.90;;;;;;5000829;28;19932;-66
2023/12/18 07:14:02;;;;;;;;;;;8.30;99.90;;;;;;5029546;28;19935;-66
2023/12/18 07:16:28;;;;;;;;;;;8.30;99.90;;;;;;5003188;28;19928;-65
2023/12/18 07:18:55;;;;;;;;;;;8.30;99.90;;;;;;5038529;28;20454;-66
2023/12/18 07:21:20;;;;;;;;;;;8.20;99.90;;;;;;4999772;28;20636;-66
2023/12/18 07:23:46;;;;;;;;;;;8.30;99.90;;;;;;5042698;28;19931;-66
2023/12/18 07:26:13;;;;;;;;;;;8.20;99.90;;;;;;5004771;28;19931;-66
2023/12/18 07:28:39;;;;;;;;;;;8.20;99.90;;;;;;5039478;28;20774;-67
2023/12/18 07:31:06;;;;;;;;;;;8.20;99.90;;;;;;5001779;28;19924;-66
2023/12/18 07:33:31;;;;;;;;;;;8.20;99.90;;;;;;5037231;28;19924;-64
2023/12/18 07:35:57;;;;;;;;;;;8.20;99.90;;;;;;5003903;28;19924;-65
2023/12/18 07:38:23;;;;;;;;;;;8.20;99.90;;;;;;5044522;28;20833;-66
2023/12/18 07:40:49;;;;;;;;;;;8.20;99.90;;;;;;5003240;28;19940;-66
2023/12/18 07:43:15;;;;;;;;;;;8.20;99.90;;;;;;5053211;28;20417;-66
2023/12/18 07:45:41;;;;;;;;;;;8.20;99.90;;;;;;5034431;28;19928;-66
2023/12/18 07:48:13;;;;;;;;;;;8.20;99.90;;;;;;5001585;28;19924;-66
2023/12/18 07:50:38;;;;;;;;;;;8.20;99.90;;;;;;5035189;28;19924;-66
2023/12/18 07:53:05;;;;;;;;;;;8.20;99.90;;;;;;5017380;28;21001;-68
2023/12/18 07:55:31;;;;;;;;;;;8.20;99.90;;;;;;5015335;28;19931;-66
2023/12/18 07:58:00;;;;;;;;;;;8.20;99.90;;;;;;5027517;28;19951;-66
2023/12/18 08:00:44;;;;;;;;;;;8.20;99.90;;;;;;5033630;28;21008;-67
2023/12/18 08:03:13;;;;;;;;;;;8.20;99.90;;;;;;4983311;28;19925;-66
2023/12/18 08:05:39;;;;;;;;;;;8.20;99.90;;;;;;5035564;28;20646;-66
2023/12/18 08:08:12;;;;;;;;;;;8.20;99.90;;;;;;5018510;28;19927;-67
2023/12/18 08:10:48;;;;;;;;;;;8.20;99.90;;;;;;5032702;28;19924;-66
2023/12/18 08:13:23;;;;;;;;;;;8.20;99.90;;;;;;4976027;28;20904;-65
2023/12/18 08:15:49;;;;;;;;;;;8.20;99.90;;;;;;5008590;28;19925;-65
2023/12/18 08:18:15;;;;;;;;;;;8.30;99.90;;;;;;5038269;28;19936;-65
2023/12/18 08:20:42;;;;;;;;;;;8.30;99.90;;;;;;5031887;28;20306;-65
2023/12/18 08:23:08;;;;;;;;;;;8.30;99.90;;;;;;4997351;28;20477;-64
2023/12/18 08:25:34;;;;;;;;;;;8.30;99.90;;;;;;5032373;28;19924;-65
2023/12/18 08:28:00;;;;;;;;;;;8.30;99.90;;;;;;5016348;28;19924;-65
2023/12/18 08:30:26;;;;;;;;;;;8.30;99.90;;;;;;5028513;28;20921;-65
2023/12/18 08:32:52;;;;;;;;;;;8.40;99.90;;;;;;4981827;28;19936;-65
2023/12/18 08:35:17;;;;;;;;;;;8.40;99.90;;;;;;5033997;28;20031;-64
2023/12/18 08:37:43;;;;;;;;;;;8.40;99.90;;;;;;5024798;28;19924;-65
2023/12/18 08:40:10;;;;;;;;;;;8.40;99.90;;;;;;5031574;28;21059;-65
2023/12/18 08:42:35;;;;;;;;;;;8.40;99.90;;;;;;5016520;28;20002;-66
2023/12/18 08:45:01;;;;;;;;;;;8.40;99.90;;;;;;5033440;28;20311;-64
2023/12/18 08:47:27;;;;;;;;;;;8.40;99.90;;;;;;4997518;28;19924;-62
2023/12/18 08:49:53;;;;;;;;;;;8.30;99.90;;;;;;5033531;28;19977;-64
2023/12/18 08:52:19;;;;;;;;;;;8.40;99.90;;;;;;5020623;28;20272;-64
2023/12/18 08:54:45;;;;;;;;;;;8.30;99.90;;;;;;5036201;28;20005;-64
2023/12/18 08:57:11;;;;;;;;;;;8.30;99.90;;;;;;5008453;28;19928;-64
2023/12/18 08:59:37;;;;;;;;;;;8.20;99.90;;;;;;5034385;28;20476;-65
2023/12/18 09:02:03;;;;;;;;;;;8.20;99.90;;;;;;4999343;28;19931;-66
2023/12/18 09:04:28;;;;;;;;;;;8.30;99.90;;;;;;5029873;28;20421;-65
2023/12/18 09:06:54;;;;;;;;;;;8.20;99.90;;;;;;4997880;28;19924;-63
2023/12/18 09:09:20;;;;;;;;;;;8.20;99.90;;;;;;5028546;28;20739;-66
2023/12/18 09:11:46;;;;;;;;;;;8.20;99.90;;;;;;4996832;28;19932;-66
2023/12/18 09:14:12;;;;;;;;;;;8.20;99.90;;;;;;5033480;28;20985;-64
2023/12/18 09:16:39;;;;;;;;;;;8.20;99.90;;;;;;4994372;28;19924;-65
2023/12/18 09:19:05;;;;;;;;;;;8.20;99.90;;;;;;5017430;28;19928;-65
2023/12/18 09:21:31;;;;;;;;;;;8.20;99.90;;;;;;5002272;28;19924;-65
2023/12/18 09:23:57;;;;;;;;;;;8.20;99.90;;;;;;5043834;28;19924;-67
2023/12/18 09:26:23;;;;;;;;;;;8.20;99.90;;;;;;4997212;28;19924;-64
2023/12/18 09:28:49;;;;;;;;;;;8.20;99.90;;;;;;5027077;28;19954;-66
2023/12/18 09:31:16;;;;;;;;;;;8.20;99.90;;;;;;5003516;27;19935;-64
2023/12/18 09:33:42;;;;;;;;;;;8.20;99.90;;;;;;5040371;28;20344;-65
2023/12/18 09:36:08;;;;;;;;;;;8.20;99.90;;;;;;4998673;28;20995;-64
2023/12/18 09:38:34;;;;;;;;;;;8.20;99.90;;;;;;5009969;28;20109;-65
2023/12/18 09:41:00;;;;;;;;;;;8.30;99.90;;;;;;5002643;28;20033;-65
2023/12/18 09:43:27;;;;;;;;;;;8.20;99.90;;;;;;5039533;28;19924;-65
2023/12/18 09:45:53;;;;;;;;;;;8.30;99.90;;;;;;5000476;28;19943;-66
2023/12/18 09:48:19;;;;;;;;;;;8.30;99.90;;;;;;5037486;28;19928;-64
2023/12/18 09:50:45;;;;;;;;;;;8.30;99.90;;;;;;5022265;28;19977;-64
2023/12/18 09:53:13;;;;;;;;;;;8.30;99.90;;;;;;5024033;28;20472;-66
2023/12/18 09:55:39;;;;;;;;;;;8.40;99.90;;;;;;5030860;28;19924;-65
2023/12/18 09:58:06;;;;;;;;;;;8.40;99.90;;;;;;5009905;28;21022;-64
2023/12/18 10:00:32;;;;;;;;;;;8.40;99.90;;;;;;5030066;28;19924;-64
2023/12/18 10:02:59;;;;;;;;;;;8.40;99.90;;;;;;5029732;27;20002;-64
2023/12/18 10:05:25;;;;;;;;;;;8.50;99.90;;;;;;5028475;28;19935;-65
2023/12/18 10:07:52;;;;;;;;;;;8.50;99.90;;;;;;4977830;28;19932;-64
2023/12/18 10:10:18;;;;;;;;;;;8.60;99.90;;;;;;5029026;28;19924;-65
2023/12/18 10:12:45;;;;;;;;;;;8.60;99.90;;;;;;4977302;28;20425;-65
2023/12/18 10:15:11;;;;;;;;;;;8.60;99.90;;;;;;5028953;28;19931;-64
2023/12/18 10:17:43;;;;;;;;;;;8.60;99.90;;;;;;5009978;28;19928;-65
2023/12/18 10:20:11;;;;;;;;;;;8.60;99.90;;;;;;5029552;28;19925;-65
2023/12/18 10:22:40;;;;;;;;;;;8.60;99.90;;;;;;4995785;28;19928;-64
2023/12/18 10:25:06;;;;;;;;;;;8.60;99.90;;;;;;5041964;28;19924;-64
2023/12/18 10:27:33;;;;;;;;;;;8.70;99.90;;;;;;5021472;28;19924;-65
2023/12/18 10:29:58;;;;;;;;;;;8.60;99.90;;;;;;5031559;28;19952;-64
2023/12/18 10:32:27;;;;;;;;;;;8.60;99.90;;;;;;4992547;28;20465;-64
2023/12/18 10:34:54;;;;;;;;;;;8.70;99.90;;;;;;5022523;28;20371;-65
2023/12/18 10:37:20;;;;;;;;;;;8.70;99.90;;;;;;5010944;28;20057;-65
2023/12/18 10:39:49;;;;;;;;;;;8.60;99.90;;;;;;5033052;28;20154;-64
2023/12/18 10:42:28;;;;;;;;;;;8.70;99.90;;;;;;4998551;28;20350;-64
2023/12/18 10:44:56;;;;;;;;;;;8.70;99.90;;;;;;5032685;28;19931;-64
2023/12/18 10:47:23;;;;;;;;;;;8.70;99.90;;;;;;4996623;28;19928;-64
2023/12/18 10:49:50;;;;;;;;;;;8.70;99.90;;;;;;5033267;28;20004;-63
2023/12/18 10:52:16;;;;;;;;;;;8.80;99.90;;;;;;5014999;28;19927;-64
2023/12/18 10:54:44;;;;;;;;;;;8.70;99.90;;;;;;5035304;28;20619;-64
2023/12/18 10:57:10;;;;;;;;;;;8.70;99.90;;;;;;5013984;28;19930;-64
2023/12/18 10:59:37;;;;;;;;;;;8.80;99.90;;;;;;5036891;28;19928;-65
2023/12/18 11:02:06;;;;;;;;;;;8.80;99.90;;;;;;4985140;28;20004;-64
2023/12/18 11:04:35;;;;;;;;;;;8.80;99.90;;;;;;5020252;28;19929;-64
2023/12/18 11:07:02;;;;;;;;;;;8.80;99.90;;;;;;5005959;28;19924;-64
2023/12/18 11:09:28;;;;;;;;;;;8.80;99.90;;;;;;5037594;28;20761;-64
2023/12/18 11:11:54;;;;;;;;;;;8.80;99.90;;;;;;4995261;28;19924;-65
2023/12/18 11:14:44;;;;;;;;;;;8.80;99.90;;;;;;5001044;28;20448;-64
2023/12/18 11:17:21;;;;;;;;;;;8.80;99.90;;;;;;4953457;28;20486;-64
2023/12/18 11:19:51;;;;;;;;;;;8.90;99.90;;;;;;5023109;28;20020;-65
2023/12/18 11:22:22;;;;;;;;;;;8.80;99.90;;;;;;4993164;28;20435;-64
2023/12/18 11:24:48;;;;;;;;;;;8.80;99.90;;;;;;5028362;28;19924;-64
2023/12/18 11:27:16;;;;;;;;;;;8.80;99.90;;;;;;4996733;28;19931;-65
2023/12/18 11:29:43;;;;;;;;;;;8.80;99.90;;;;;;5022397;28;19924;-65
2023/12/18 11:32:09;;;;;;;;;;;8.80;99.90;;;;;;5005721;28;20905;-65
2023/12/18 11:34:35;;;;;;;;;;;8.80;99.90;;;;;;5031197;28;19923;-64
2023/12/18 11:37:02;;;;;;;;;;;8.90;99.90;;;;;;4975243;28;20043;-63
2023/12/18 11:39:41;;;;;;;;;;;8.90;99.90;;;;;;5021020;28;19927;-64
2023/12/18 11:42:07;;;;;;;;;;;8.90;99.90;;;;;;5008823;28;19927;-64
2023/12/18 11:44:34;;;;;;;;;;;8.90;99.90;;;;;;5031819;28;20006;-64
2023/12/18 11:47:00;;;;;;;;;;;8.90;99.90;;;;;;5006517;28;19924;-65
2023/12/18 11:49:26;;;;;;;;;;;8.90;99.90;;;;;;5033204;28;20108;-64
2023/12/18 11:51:52;;;;;;;;;;;9.00;99.90;;;;;;5001336;28;19923;-65
2023/12/18 11:54:23;;;;;;;;;;;8.90;99.90;;;;;;5026234;28;19928;-65
2023/12/18 11:56:51;;;;;;;;;;;9.00;99.90;;;;;;5004148;28;20417;-64
2023/12/18 11:59:18;;;;;;;;;;;8.90;99.90;;;;;;5036381;28;19987;-64
2023/12/18 12:01:45;;;;;;;;;;;9.00;99.90;;;;;;4996562;28;19939;-63
2023/12/18 12:04:12;;;;;;;;;;;9.00;99.90;;;;;;5032844;28;20405;-66
2023/12/18 12:06:38;;;;;;;;;;;8.90;99.90;;;;;;5001803;28;19931;-65
2023/12/18 12:09:06;;;;;;;;;;;8.90;99.90;;;;;;5031867;28;20797;-65
2023/12/18 12:11:32;;;;;;;;;;;8.90;99.90;;;;;;5011449;28;19931;-65
2023/12/18 12:13:58;;;;;;;;;;;9.00;99.90;;;;;;5034289;28;19928;-64
2023/12/18 12:16:24;;;;;;;;;;;8.90;99.90;;;;;;5004902;28;19924;-64
2023/12/18 12:18:50;;;;;;;;;;;8.90;99.90;;;;;;5039142;28;19935;-64
2023/12/18 12:21:17;;;;;;;;;;;9.00;99.90;;;;;;4995656;28;20025;-65
2023/12/18 12:23:49;;;;;;;;;;;8.90;99.90;;;;;;5036562;28;21102;-64
2023/12/18 12:26:16;;;;;;;;;;;8.90;99.90;;;;;;5002924;28;19924;-65
2023/12/18 12:28:42;;;;;;;;;;;8.90;99.90;;;;;;5041371;28;21042;-65
2023/12/18 12:31:09;;;;;;;;;;;8.90;99.90;;;;;;5006361;27;19929;-64
2023/12/18 12:33:42;;;;;;;;;;;8.90;99.90;;;;;;5055976;27;21090;-65
2023/12/18 12:36:10;;;;;;;;;;;8.90;99.90;;;;;;5005103;28;19929;-67
2023/12/18 12:38:37;;;;;;;;;;;8.90;99.90;;;;;;5010257;28;19931;-65
2023/12/18 12:41:04;;;;;;;;;;;8.90;99.90;;;;;;5001775;28;20307;-64
2023/12/18 12:43:30;;;;;;;;;;;8.90;99.90;;;;;;5026812;28;20622;-63
2023/12/18 12:45:57;;;;;;;;;;;8.90;99.90;;;;;;5001766;28;20344;-65
2023/12/18 12:48:23;;;;;;;;;;;8.90;99.90;;;;;;5053154;28;19928;-64
2023/12/18 12:50:50;;;;;;;;;;;8.90;99.90;;;;;;5010426;28;19951;-66
2023/12/18 12:53:17;;;;;;;;;;;8.90;99.90;;;;;;5000201;28;19939;-64
2023/12/18 12:55:43;;;;;;;;;;;8.90;99.90;;;;;;5030336;28;20409;-65
2023/12/18 12:58:10;;;;;;;;;;;8.90;99.90;;;;;;4989884;28;19935;-65
2023/12/18 13:00:36;;;;;;;;;;;8.90;99.90;;;;;;5033436;28;20926;-64
2023/12/18 13:03:02;;;;;;;;;;;8.90;99.90;;;;;;5014566;28;19924;-65
2023/12/18 13:05:28;;;;;;;;;;;8.90;99.90;;;;;;5030852;28;19927;-65
2023/12/18 13:07:55;;;;;;;;;;;8.90;99.90;;;;;;5009342;28;21150;-65
2023/12/18 13:10:25;;;;;;;;;;;8.90;99.90;;;;;;5030898;28;19931;-64
2023/12/18 13:12:52;;;;;;;;;;;8.90;99.90;;;;;;5011857;28;19928;-65
2023/12/18 13:15:18;;;;;;;;;;;9.00;99.90;;;;;;5029383;28;21077;-65
2023/12/18 13:17:45;;;;;;;;;;;9.00;99.90;;;;;;4996060;28;19931;-65
2023/12/18 13:20:10;;;;;;;;;;;9.00;99.90;;;;;;5031417;28;19924;-65
2023/12/18 13:22:36;;;;;;;;;;;9.00;99.90;;;;;;5007550;28;20464;-65
2023/12/18 13:25:02;;;;;;;;;;;9.00;99.90;;;;;;5033831;28;19939;-65
2023/12/18 13:27:28;;;;;;;;;;;9.00;99.90;;;;;;5013948;28;19934;-65
2023/12/18 13:29:54;;;;;;;;;;;9.10;99.90;;;;;;5028907;28;19924;-65
2023/12/18 13:32:20;;;;;;;;;;;9.00;99.90;;;;;;5007695;28;19927;-64
2023/12/18 13:34:46;;;;;;;;;;;9.00;99.90;;;;;;5028243;28;20488;-65
2023/12/18 13:37:14;;;;;;;;;;;9.10;99.90;;;;;;5006182;28;19923;-64
2023/12/18 13:39:40;;;;;;;;;;;9.10;99.90;;;;;;5033230;28;19935;-64
2023/12/18 13:42:07;;;;;;;;;;;9.10;99.90;;;;;;5016099;28;19932;-64
2023/12/18 13:44:33;;;;;;;;;;;9.10;99.90;;;;;;5038251;28;19924;-64
2023/12/18 13:46:59;;;;;;;;;;;9.10;99.90;;;;;;5014456;28;21114;-65
2023/12/18 13:49:25;;;;;;;;;;;9.10;99.90;;;;;;5038469;28;19923;-65
2023/12/18 13:51:52;;;;;;;;;;;9.10;99.90;;;;;;4997691;28;20513;-66
2023/12/18 13:54:19;;;;;;;;;;;9.10;99.90;;;;;;5024338;28;19936;-64
2023/12/18 13:56:45;;;;;;;;;;;9.10;99.90;;;;;;5013601;27;20378;-65
2023/12/18 13:59:11;;;;;;;;;;;9.10;99.90;;;;;;5045555;27;19935;-64
2023/12/18 14:01:37;;;;;;;;;;;9.10;99.90;;;;;;5004967;28;19931;-64
2023/12/18 14:04:03;;;;;;;;;;;9.10;99.90;;;;;;5034513;28;19924;-65
2023/12/18 14:06:29;;;;;;;;;;;9.10;99.90;;;;;;5002690;28;20418;-65
2023/12/18 14:08:55;;;;;;;;;;;9.10;99.90;;;;;;5037570;28;19935;-64
2023/12/18 14:11:21;;;;;;;;;;;9.10;99.90;;;;;;5000526;28;20374;-65
2023/12/18 14:13:47;;;;;;;;;;;9.10;99.90;;;;;;5023110;28;19991;-64
2023/12/18 14:16:13;;;;;;;;;;;9.10;99.90;;;;;;5002381;28;19948;-63
2023/12/18 14:18:39;;;;;;;;;;;9.00;99.90;;;;;;5035213;28;20034;-64
2023/12/18 14:21:05;;;;;;;;;;;9.10;99.90;;;;;;4998056;28;20993;-65
2023/12/18 14:23:31;;;;;;;;;;;9.00;99.90;;;;;;5037151;28;19924;-65
2023/12/18 14:25:57;;;;;;;;;;;9.00;99.90;;;;;;4995383;28;19931;-64